Flight Track Log - Related Links

Times and Time Zones

All times are in EDT time to prevent confusion due to time zone crossing. See the N20992 flight status page for this flight to view local times or setup timezone preferences in your user account.

Time Position Orientation Groundspeed Altitude Reporting Facility
EDT Latitude Longitude Course Direction KTS MPH feet Rate Location/Type
Sat 11:22:22 AM 39.3667 -84.5000 142° Southeast 74 85 1,300  Level Cincinnati TRACON
Sat 11:22:58 AM 39.3500 -84.4833 142° Southeast 81 93 1,800 742 Climbing Cincinnati TRACON
Sat 11:23:59 AM 39.3667 -84.4833 360° North 109 125 2,500 750 Climbing Cincinnati TRACON
Sat 11:24:34 AM 39.3867 -84.4925 340° North 90 104 3,000 885 Climbing Indianapolis Center
Sat 11:25:00 AM 39.3958 -84.4992 331° Northwest 109 125 3,400  Climbing Indianapolis Center
Sat 11:25:35 AM 39.4136 -84.5114 332° Northwest 108 124 3,000 -186 Descending Indianapolis Center
Sat 11:26:37 AM 39.4453 -84.5358 329° Northwest 120 138 3,100 49 Climbing Indianapolis Center
Sat 11:27:38 AM 39.4708 -84.5556 329° Northwest 106 122 3,100 -52 Level Indianapolis Center
Sat 11:28:33 AM 39.4944 -84.5750 328° Northwest 112 129 3,000 49 Descending Indianapolis Center
Sat 11:29:40 AM 39.5258 -84.6008 328° Northwest 117 135 3,200  Climbing Indianapolis Center
Sat 11:30:41 AM 39.5506 -84.6314 316° Northwest 124 143 3,000 -49 Descending Indianapolis Center
Sat 11:31:42 AM 39.5708 -84.6667 307° West 117 135 3,100 50 Climbing Indianapolis Center
Sat 11:32:42 AM 39.5908 -84.7019 306° West 119 137 3,100 -94 Level Indianapolis Center
Sat 11:33:49 AM 39.6219 -84.7333 322° Northwest 123 142 2,900 -141 Descending Indianapolis Center
Sat 11:34:50 AM 39.6494 -84.7536 330° Northwest 116 133 2,800 -49 Descending Indianapolis Center
Sat 11:35:51 AM 39.6772 -84.7739 331° Northwest 107 123 2,800 -207 Level Indianapolis Center
Sat 11:36:46 AM 39.7028 -84.7936 329° Northwest 113 130 2,400 -517 Descending Indianapolis Center
Sat 11:37:47 AM 39.7278 -84.8189 322° Northwest 119 137 1,800 -310 Descending Indianapolis Center
Sat 11:38:42 AM 39.7394 -84.8314 321° Northwest 119 137 1,800 155 Level Indianapolis Center
Sat 11:39:43 AM 39.7703 -84.8631 322° Northwest 105 121 2,100 524 Climbing Indianapolis Center
Sat 11:40:25 AM 39.7858 -84.8789 322° Northwest 99 114 2,700 583 Climbing Indianapolis Center
Sat 11:41:26 AM 39.8022 -84.9083 306° West 110 127 3,100 197 Climbing Indianapolis Center
Sat 11:42:27 AM 39.7728 -84.9094 182° South 93 107 3,100  Level Indianapolis Center
Sat 11:43:28 AM 39.7453 -84.9111 183° South 95 109 3,100  Level Indianapolis Center
Sat 11:44:29 AM 39.7217 -84.9158 189° South 90 104 3,100  Level Indianapolis Center
Sat 11:45:29 AM 39.6975 -84.9042 160° South 92 106 3,100  Level Indianapolis Center
Sat 11:46:24 AM 39.6731 -84.8953 164° South 95 109 3,100  Level Indianapolis Center
Sat 11:47:25 AM 39.6489 -84.8864 164° South 92 106 3,100  Level Indianapolis Center
Sat 11:48:26 AM 39.6222 -84.8772 165° South 93 107 3,100  Level Indianapolis Center
Sat 11:49:27 AM 39.5978 -84.8683 164° South 91 105 3,100  Level Indianapolis Center
Sat 11:50:28 AM 39.5733 -84.8594 164° South 91 105 3,100  Level Indianapolis Center
Sat 11:51:29 AM 39.5586 -84.8383 132° Southeast 97 112 3,100 47 Level Indianapolis Center
Sat 11:52:36 AM 39.5617 -84.8008 84° East 96 110 3,200  Climbing Indianapolis Center
Sat 11:53:31 AM 39.5664 -84.7692 79° East 99 114 3,100 -104 Descending Indianapolis Center
Sat 11:54:31 AM 39.5714 -84.7344 79° East 96 110 3,000  Descending Indianapolis Center
Sat 11:55:32 AM 39.5742 -84.7025 84° East 90 104 3,100 49 Climbing Indianapolis Center
Sat 11:56:33 AM 39.5769 -84.6675 84° East 95 109 3,100  Level Indianapolis Center
Sat 11:57:34 AM 39.5953 -84.6756 341° North 121 139 3,100 -49 Level Indianapolis Center
Sat 11:58:35 AM 39.6131 -84.7133 301° West 121 139 3,000 -148 Descending Indianapolis Center
Sat 11:59:36 AM 39.6381 -84.7383 322° Northwest 117 135 2,800 -98 Descending Indianapolis Center
Sat 12:00:37 PM 39.6617 -84.7581 327° Northwest 99 114 2,800  Level Indianapolis Center
Sat 12:01:38 PM 39.6892 -84.7808 327° Northwest 118 136 2,800  Level Indianapolis Center

Login

Don't have an account? Register now (free) for customized features, flight alerts, and more!